ルクソール の空港の天気 - METARとTAF

ルクソール国際空港 ( HELX / LXR ) - エジプト ルクソール
飛行場実況気象(Metar)
観測時間05/29 01:00 EET (05/28 23:00 UTC)
風向・風速西北西 2m/s
視程10km以上
天気現象
なし
気温29℃
湿度22%
気圧1007hPa
METARHELX 282300Z 30004KT CAVOK 29/05 Q1007 NOSIG
過去の天気等 Google飛行場航空写真 Wunderground天気予報

過去48時間のMETAR

飛行場予報(TAF)
発表時間: 5/28 19:00 EET (5/28 17:00 UTC)
予報対象時間: 28日20時 EET ~ 30日2時 EET
風向・風速北北西 4m/s
視程10km以上
なし
TAF HELX 281700Z 2818/2924 33008KT CAVOK